Time;durP1;ratioP1;P1;durP2;ratioP2;P2;SDS_P1;SDS_P2;PMS_P1;PMS_P2;Temp;Humidity;BMP_temperature;BMP_pressure;BME280_temperature;BME280_humidity;BME280_pressure;Samples;Min_cycle;Max_cycle;Signal;HPM_P1;HPM_P2
2020/12/06 01:58:00;;;;;;;16.33;13.88;;;;;;;;;;5099654;28;20647;-65
2020/12/06 02:00:27;;;;;;;17.95;13.95;;;;;;;;;;5098812;28;20268;-65
2020/12/06 02:03:01;;;;;;;18.20;14.07;;;;;;;;;;5100001;28;20643;-66
2020/12/06 02:05:28;;;;;;;19.58;14.77;;;;;;;;;;5099159;28;20276;-64
2020/12/06 02:07:58;;;;;;;20.02;14.55;;;;;;;;;;5096369;28;20204;-65
2020/12/06 02:10:25;;;;;;;19.23;15.75;;;;;;;;;;5095937;28;20256;-66
2020/12/06 02:12:52;;;;;;;18.33;14.38;;;;;;;;;;5095899;28;20660;-65
2020/12/06 02:15:20;;;;;;;21.98;15.18;;;;;;;;;;5095861;28;20196;-65
2020/12/06 02:17:47;;;;;;;18.30;14.38;;;;;;;;;;5095870;28;20269;-66
2020/12/06 02:20:14;;;;;;;19.85;16.08;;;;;;;;;;5095432;28;20224;-65
2020/12/06 02:22:41;;;;;;;19.48;15.32;;;;;;;;;;5095367;28;20208;-65
2020/12/06 02:25:08;;;;;;;21.50;14.88;;;;;;;;;;5095902;28;20253;-65
2020/12/06 02:27:34;;;;;;;20.23;14.48;;;;;;;;;;5095630;28;20200;-66
2020/12/06 02:30:01;;;;;;;20.50;15.43;;;;;;;;;;5095451;28;20224;-66
2020/12/06 02:32:28;;;;;;;19.30;15.68;;;;;;;;;;5095498;28;20204;-66
2020/12/06 02:34:55;;;;;;;18.75;14.15;;;;;;;;;;5095362;28;20200;-65
2020/12/06 02:53:00;;;;;;;22.70;16.75;;;;;;;;;;5094803;28;20620;-65
2020/12/06 02:55:27;;;;;;;23.15;17.23;;;;;;;;;;5094835;28;20282;-65
2020/12/06 02:57:54;;;;;;;24.52;16.27;;;;;;;;;;5094695;28;20200;-66
2020/12/06 03:00:21;;;;;;;21.55;14.88;;;;;;;;;;5094703;28;20221;-66
2020/12/06 03:02:48;;;;;;;21.65;16.52;;;;;;;;;;5094877;28;20200;-66
2020/12/06 03:05:15;;;;;;;22.05;16.10;;;;;;;;;;5094271;28;20671;-66
2020/12/06 03:07:41;;;;;;;20.88;15.85;;;;;;;;;;5094274;28;20180;-66
2020/12/06 03:10:09;;;;;;;22.60;16.30;;;;;;;;;;5094205;28;20760;-66
2020/12/06 03:12:36;;;;;;;22.13;15.57;;;;;;;;;;5094571;28;20208;-66
2020/12/06 03:15:03;;;;;;;21.60;16.42;;;;;;;;;;5094595;28;20208;-66
2020/12/06 03:17:30;;;;;;;21.58;16.05;;;;;;;;;;5094461;28;20197;-66
2020/12/06 03:19:56;;;;;;;23.38;16.38;;;;;;;;;;5095537;28;20220;-65
2020/12/06 03:22:23;;;;;;;23.48;16.50;;;;;;;;;;5111934;28;20200;-66
2020/12/06 03:24:50;;;;;;;21.85;15.82;;;;;;;;;;5113744;28;20200;-66
2020/12/06 03:27:17;;;;;;;24.95;17.08;;;;;;;;;;5111454;28;20200;-67
2020/12/06 03:29:44;;;;;;;25.85;17.42;;;;;;;;;;5099847;28;20278;-66
2020/12/06 03:32:11;;;;;;;25.13;18.02;;;;;;;;;;5094871;28;20208;-66
2020/12/06 03:34:38;;;;;;;21.65;16.42;;;;;;;;;;5093771;28;20204;-66
2020/12/06 03:37:04;;;;;;;26.80;18.05;;;;;;;;;;5094167;28;20249;-65
2020/12/06 03:39:31;;;;;;;24.92;17.65;;;;;;;;;;5093906;28;20315;-66
2020/12/06 03:41:58;;;;;;;21.88;16.33;;;;;;;;;;5094038;28;20286;-66
2020/12/06 03:44:25;;;;;;;22.15;16.63;;;;;;;;;;5093520;28;20204;-66
2020/12/06 03:46:52;;;;;;;24.38;17.38;;;;;;;;;;5093927;28;20261;-66
2020/12/06 03:49:19;;;;;;;25.35;17.52;;;;;;;;;;5093819;28;20661;-66
2020/12/06 03:51:46;;;;;;;29.33;17.70;;;;;;;;;;5093587;28;20208;-66
2020/12/06 03:54:12;;;;;;;23.63;17.65;;;;;;;;;;5093579;28;20204;-67
2020/12/06 03:56:39;;;;;;;22.08;15.13;;;;;;;;;;5093755;28;20201;-66
2020/12/06 03:59:06;;;;;;;28.02;18.08;;;;;;;;;;5094958;28;20196;-66
2020/12/06 04:01:33;;;;;;;24.80;18.40;;;;;;;;;;5095128;28;20343;-66
2020/12/06 04:07:25;;;;;;;21.45;16.33;;;;;;;;;;5113054;27;20536;-66
2020/12/06 04:09:52;;;;;;;26.40;18.02;;;;;;;;;;5111798;28;20269;-66
2020/12/06 04:12:19;;;;;;;23.55;18.25;;;;;;;;;;5111873;28;20199;-67
2020/12/06 04:14:46;;;;;;;25.33;17.30;;;;;;;;;;5111693;28;20195;-66
2020/12/06 04:17:12;;;;;;;23.88;16.83;;;;;;;;;;5111662;28;20200;-66
2020/12/06 04:19:39;;;;;;;24.15;17.15;;;;;;;;;;5112677;28;20227;-66
2020/12/06 04:22:06;;;;;;;25.60;18.20;;;;;;;;;;5111648;28;20252;-67
2020/12/06 04:24:34;;;;;;;22.65;16.80;;;;;;;;;;5111727;28;20199;-67
2020/12/06 04:27:01;;;;;;;22.90;17.25;;;;;;;;;;5113465;28;20313;-66
2020/12/06 04:29:28;;;;;;;21.55;16.50;;;;;;;;;;5111801;28;20227;-66
2020/12/06 04:31:54;;;;;;;24.00;16.60;;;;;;;;;;5112134;28;20268;-66
2020/12/06 04:34:21;;;;;;;20.88;16.17;;;;;;;;;;5112138;28;20659;-66
2020/12/06 04:36:48;;;;;;;22.67;17.02;;;;;;;;;;5115189;28;20207;-66
2020/12/06 04:39:15;;;;;;;22.55;17.20;;;;;;;;;;5114667;28;20277;-67
2020/12/06 04:41:42;;;;;;;22.52;17.75;;;;;;;;;;5115736;28;20265;-66
2020/12/06 04:44:09;;;;;;;24.30;16.98;;;;;;;;;;5114371;28;20252;-66
2020/12/06 04:46:38;;;;;;;25.25;17.25;;;;;;;;;;5110998;28;20219;-67
2020/12/06 04:49:18;;;;;;;23.80;18.80;;;;;;;;;;5111387;28;20204;-67
2020/12/06 04:51:45;;;;;;;24.60;18.20;;;;;;;;;;5110638;28;20229;-66
2020/12/06 04:54:12;;;;;;;29.90;17.50;;;;;;;;;;5110463;28;20687;-67
2020/12/06 04:56:39;;;;;;;25.00;19.00;;;;;;;;;;5110451;28;20241;-67
2020/12/06 04:59:07;;;;;;;26.17;18.67;;;;;;;;;;5110440;28;20204;-68
2020/12/06 05:01:35;;;;;;;22.95;17.55;;;;;;;;;;5110401;28;20200;-67
2020/12/06 05:04:06;;;;;;;25.42;17.70;;;;;;;;;;5110550;28;20276;-66
2020/12/06 05:06:33;;;;;;;24.55;17.92;;;;;;;;;;5110085;28;20219;-66
2020/12/06 05:09:00;;;;;;;24.50;17.45;;;;;;;;;;5110490;28;20204;-66
2020/12/06 05:11:27;;;;;;;23.33;17.27;;;;;;;;;;5110509;28;20265;-67
2020/12/06 05:13:54;;;;;;;27.02;18.00;;;;;;;;;;5110460;28;20689;-67
2020/12/06 05:16:22;;;;;;;26.25;17.85;;;;;;;;;;5110451;28;20223;-66
2020/12/06 05:18:49;;;;;;;25.17;16.60;;;;;;;;;;5096806;28;20200;-67
2020/12/06 05:21:15;;;;;;;24.30;18.02;;;;;;;;;;5096808;28;20208;-66
2020/12/06 05:23:42;;;;;;;22.40;17.15;;;;;;;;;;5096393;28;20213;-66
2020/12/06 05:26:09;;;;;;;23.00;16.40;;;;;;;;;;5096219;28;20244;-67
2020/12/06 05:28:36;;;;;;;22.33;17.95;;;;;;;;;;5096593;28;20204;-67
2020/12/06 05:31:03;;;;;;;23.70;16.60;;;;;;;;;;5096341;28;20220;-67
2020/12/06 05:33:31;;;;;;;26.85;18.73;;;;;;;;;;5096399;28;20261;-68
2020/12/06 05:36:00;;;;;;;27.40;16.90;;;;;;;;;;5096157;28;20197;-67
2020/12/06 05:38:27;;;;;;;23.10;16.75;;;;;;;;;;5096956;28;20254;-68
2020/12/06 05:40:57;;;;;;;25.95;17.00;;;;;;;;;;5096208;28;20224;-67
2020/12/06 05:43:27;;;;;;;25.23;16.92;;;;;;;;;;5096247;28;20621;-68
2020/12/06 05:46:01;;;;;;;26.13;17.42;;;;;;;;;;5096369;28;20238;-66
2020/12/06 05:48:28;;;;;;;25.23;17.98;;;;;;;;;;5096577;28;20202;-66
2020/12/06 05:50:56;;;;;;;22.63;16.77;;;;;;;;;;5096013;28;20224;-68
2020/12/06 05:53:23;;;;;;;26.65;17.60;;;;;;;;;;5096049;28;20197;-67
2020/12/06 05:55:51;;;;;;;27.77;16.75;;;;;;;;;;5100549;28;20253;-67
2020/12/06 05:58:19;;;;;;;28.33;19.95;;;;;;;;;;5103548;28;20230;-67
2020/12/06 06:00:46;;;;;;;26.48;18.77;;;;;;;;;;5098890;28;20248;-66
2020/12/06 06:03:13;;;;;;;20.75;16.60;;;;;;;;;;5096432;28;20249;-68
2020/12/06 06:05:42;;;;;;;21.80;16.55;;;;;;;;;;5095437;28;20337;-66
2020/12/06 06:08:10;;;;;;;27.75;18.13;;;;;;;;;;5095844;28;20273;-68
2020/12/06 06:10:40;;;;;;;25.13;16.63;;;;;;;;;;5095263;28;20220;-68
2020/12/06 06:13:09;;;;;;;27.75;17.02;;;;;;;;;;5095688;28;20234;-67
2020/12/06 06:15:36;;;;;;;23.27;16.70;;;;;;;;;;5095465;28;20594;-66
2020/12/06 06:18:04;;;;;;;26.60;18.52;;;;;;;;;;5095507;28;20253;-67
2020/12/06 06:20:31;;;;;;;22.88;16.27;;;;;;;;;;5095121;28;20278;-67
2020/12/06 06:22:59;;;;;;;25.17;18.40;;;;;;;;;;5095379;28;20252;-67
2020/12/06 06:25:27;;;;;;;24.92;18.15;;;;;;;;;;5095535;28;20196;-67
2020/12/06 06:27:53;;;;;;;28.13;18.42;;;;;;;;;;5095044;28;20201;-67
2020/12/06 06:30:20;;;;;;;28.27;19.20;;;;;;;;;;5093976;28;20269;-66
2020/12/06 06:32:47;;;;;;;22.35;17.20;;;;;;;;;;5095998;28;20197;-67
2020/12/06 06:35:14;;;;;;;29.25;19.83;;;;;;;;;;5095002;28;20612;-67
2020/12/06 06:37:41;;;;;;;30.48;18.80;;;;;;;;;;5095850;28;20615;-67
2020/12/06 06:40:09;;;;;;;24.23;17.75;;;;;;;;;;5096027;28;20224;-67
2020/12/06 06:42:37;;;;;;;28.20;18.50;;;;;;;;;;5094934;28;20200;-66
2020/12/06 06:45:07;;;;;;;27.05;17.73;;;;;;;;;;5095719;28;20204;-67
2020/12/06 06:47:36;;;;;;;27.25;18.08;;;;;;;;;;5095004;28;20273;-65
2020/12/06 06:50:04;;;;;;;28.85;18.40;;;;;;;;;;5094713;28;20759;-67
2020/12/06 06:52:30;;;;;;;27.52;18.42;;;;;;;;;;5095133;28;20204;-67
2020/12/06 06:54:58;;;;;;;32.65;21.70;;;;;;;;;;5095057;28;20293;-67
2020/12/06 06:57:26;;;;;;;30.08;18.80;;;;;;;;;;5095016;28;20197;-67
2020/12/06 06:59:54;;;;;;;24.85;18.67;;;;;;;;;;5094966;28;20250;-66
2020/12/06 07:02:21;;;;;;;27.85;19.25;;;;;;;;;;5095566;28;20253;-66
2020/12/06 07:04:48;;;;;;;28.00;19.10;;;;;;;;;;5095698;28;20220;-66
2020/12/06 07:07:16;;;;;;;26.80;17.58;;;;;;;;;;5095130;28;20224;-66
2020/12/06 07:09:43;;;;;;;26.00;18.83;;;;;;;;;;5095442;28;20228;-67
2020/12/06 07:12:10;;;;;;;28.20;20.00;;;;;;;;;;5096902;28;20679;-67
2020/12/06 07:14:37;;;;;;;26.95;18.88;;;;;;;;;;5097245;28;20235;-66
2020/12/06 07:17:05;;;;;;;26.75;18.67;;;;;;;;;;5097237;28;20196;-65
2020/12/06 07:19:31;;;;;;;24.55;17.73;;;;;;;;;;5096671;28;20220;-67
2020/12/06 07:21:58;;;;;;;28.55;19.23;;;;;;;;;;5096641;28;20208;-67
2020/12/06 07:24:27;;;;;;;27.35;19.52;;;;;;;;;;5097203;28;20716;-67
2020/12/06 07:26:54;;;;;;;28.02;21.75;;;;;;;;;;5098386;28;20243;-68
2020/12/06 07:29:21;;;;;;;31.83;19.60;;;;;;;;;;5096429;28;20269;-68
2020/12/06 07:31:48;;;;;;;32.00;19.38;;;;;;;;;;5096299;28;20212;-67
2020/12/06 07:34:17;;;;;;;33.70;19.88;;;;;;;;;;5094864;28;20549;-67
2020/12/06 07:36:44;;;;;;;30.58;20.55;;;;;;;;;;5094890;28;20265;-67
2020/12/06 07:39:14;;;;;;;30.90;20.70;;;;;;;;;;5095865;28;20220;-67
2020/12/06 07:41:47;;;;;;;27.35;19.35;;;;;;;;;;5095740;28;20204;-67
2020/12/06 07:44:14;;;;;;;26.80;19.20;;;;;;;;;;5095656;28;20208;-67
2020/12/06 07:46:41;;;;;;;31.60;20.60;;;;;;;;;;5095369;28;20265;-68
2020/12/06 07:49:08;;;;;;;33.50;22.25;;;;;;;;;;5094890;28;20200;-68
2020/12/06 07:51:36;;;;;;;28.05;19.05;;;;;;;;;;5095190;28;20226;-69
2020/12/06 07:54:03;;;;;;;27.50;19.80;;;;;;;;;;5094717;28;20668;-67
2020/12/06 07:56:30;;;;;;;32.75;23.70;;;;;;;;;;5094933;28;20207;-67
2020/12/06 07:59:05;;;;;;;29.30;20.65;;;;;;;;;;5096098;28;20201;-68
2020/12/06 08:01:32;;;;;;;33.40;20.35;;;;;;;;;;5096075;28;20184;-68
2020/12/06 08:03:59;;;;;;;31.40;20.75;;;;;;;;;;5096767;28;20257;-68
2020/12/06 08:06:27;;;;;;;28.95;19.23;;;;;;;;;;5101985;28;20219;-67
2020/12/06 08:08:57;;;;;;;30.85;20.92;;;;;;;;;;5098872;28;20208;-68
2020/12/06 08:11:28;;;;;;;28.08;19.75;;;;;;;;;;5096515;28;20251;-67
2020/12/06 08:13:54;;;;;;;30.85;21.75;;;;;;;;;;5095952;28;20184;-68
2020/12/06 08:16:21;;;;;;;29.38;21.05;;;;;;;;;;5095584;28;20242;-68
2020/12/06 08:18:57;;;;;;;28.23;20.63;;;;;;;;;;5096147;28;20201;-69
2020/12/06 08:21:24;;;;;;;32.00;21.45;;;;;;;;;;5096253;28;20180;-68
2020/12/06 08:23:51;;;;;;;33.00;21.80;;;;;;;;;;5095159;28;20203;-69
2020/12/06 08:26:18;;;;;;;30.70;21.90;;;;;;;;;;5096298;28;20274;-68
2020/12/06 08:28:50;;;;;;;28.17;20.58;;;;;;;;;;5095125;28;20624;-68
2020/12/06 08:31:20;;;;;;;28.50;20.05;;;;;;;;;;5095094;28;20613;-68
2020/12/06 08:33:47;;;;;;;27.15;20.50;;;;;;;;;;5095036;28;20235;-68
2020/12/06 08:36:23;;;;;;;34.97;21.20;;;;;;;;;;5095928;28;20254;-68
2020/12/06 08:38:50;;;;;;;34.75;20.92;;;;;;;;;;5096363;28;20296;-66
2020/12/06 08:41:24;;;;;;;29.83;20.73;;;;;;;;;;5096647;28;20288;-69
2020/12/06 08:43:53;;;;;;;28.48;21.65;;;;;;;;;;5096588;28;20189;-68
2020/12/06 08:46:20;;;;;;;29.45;19.42;;;;;;;;;;5096005;28;20224;-69
2020/12/06 08:48:48;;;;;;;30.00;21.10;;;;;;;;;;5094825;28;20200;-68
2020/12/06 08:51:39;;;;;;;30.60;21.13;;;;;;;;;;5094652;28;20200;-68
2020/12/06 08:54:06;;;;;;;28.77;20.23;;;;;;;;;;5081447;28;20200;-68
2020/12/06 08:56:34;;;;;;;28.55;21.25;;;;;;;;;;5097610;28;20197;-68
2020/12/06 08:59:06;;;;;;;28.15;19.70;;;;;;;;;;5097066;28;20201;-68
2020/12/06 09:01:33;;;;;;;30.33;21.25;;;;;;;;;;5097061;28;20257;-68
2020/12/06 09:04:00;;;;;;;32.35;21.55;;;;;;;;;;5097155;28;20258;-69
2020/12/06 09:06:27;;;;;;;31.67;20.42;;;;;;;;;;5096528;28;20244;-71
2020/12/06 09:08:53;;;;;;;33.08;21.45;;;;;;;;;;5097104;28;20254;-68
2020/12/06 09:11:21;;;;;;;30.65;21.38;;;;;;;;;;5098359;28;20197;-69
2020/12/06 09:13:48;;;;;;;37.08;22.00;;;;;;;;;;5096589;28;20205;-68
2020/12/06 09:16:16;;;;;;;34.92;22.10;;;;;;;;;;5097484;28;20208;-67
2020/12/06 09:18:42;;;;;;;29.77;20.90;;;;;;;;;;5096558;28;20246;-68
2020/12/06 09:21:09;;;;;;;36.03;22.25;;;;;;;;;;5096616;28;20636;-67
2020/12/06 09:23:36;;;;;;;27.63;21.23;;;;;;;;;;5096727;28;20200;-67
2020/12/06 09:26:04;;;;;;;29.17;19.85;;;;;;;;;;5096591;28;20269;-68
2020/12/06 09:28:32;;;;;;;29.05;21.10;;;;;;;;;;5096656;28;20228;-69
2020/12/06 09:30:58;;;;;;;29.50;21.13;;;;;;;;;;5096313;28;20224;-68
2020/12/06 09:33:26;;;;;;;31.80;20.60;;;;;;;;;;5096775;28;20197;-69
2020/12/06 09:35:53;;;;;;;31.77;22.10;;;;;;;;;;5096452;28;20257;-69
2020/12/06 09:38:20;;;;;;;32.75;21.15;;;;;;;;;;5096318;28;20277;-69
2020/12/06 09:40:47;;;;;;;30.33;20.02;;;;;;;;;;5096236;28;20228;-68
2020/12/06 09:43:14;;;;;;;34.25;21.58;;;;;;;;;;5096279;28;20285;-69
2020/12/06 09:45:42;;;;;;;28.67;21.63;;;;;;;;;;5096989;28;20614;-68
2020/12/06 09:48:09;;;;;;;33.28;21.75;;;;;;;;;;5098070;28;20204;-69
2020/12/06 09:50:37;;;;;;;30.08;20.88;;;;;;;;;;5096380;28;20220;-68
2020/12/06 09:53:04;;;;;;;30.38;20.48;;;;;;;;;;5096107;28;20687;-69
2020/12/06 09:55:30;;;;;;;32.20;21.65;;;;;;;;;;5096437;28;20612;-68
2020/12/06 09:57:57;;;;;;;24.83;19.63;;;;;;;;;;5096429;28;20200;-68
2020/12/06 10:00:24;;;;;;;33.17;21.00;;;;;;;;;;5096621;28;20634;-68
2020/12/06 10:02:51;;;;;;;25.45;19.02;;;;;;;;;;5096600;28;20196;-68
2020/12/06 10:05:17;;;;;;;28.25;20.80;;;;;;;;;;5095520;28;20220;-68
2020/12/06 10:07:45;;;;;;;30.65;22.15;;;;;;;;;;5096242;28;20205;-68
2020/12/06 10:10:12;;;;;;;32.47;22.05;;;;;;;;;;5095555;28;20224;-68
2020/12/06 10:12:38;;;;;;;29.70;22.30;;;;;;;;;;5095370;28;20238;-68
2020/12/06 10:15:05;;;;;;;30.30;21.80;;;;;;;;;;5096553;28;20249;-66
2020/12/06 10:17:32;;;;;;;31.65;21.33;;;;;;;;;;5095727;28;20254;-68
2020/12/06 10:19:59;;;;;;;28.10;20.92;;;;;;;;;;5096973;28;20220;-68
2020/12/06 10:22:26;;;;;;;29.48;21.00;;;;;;;;;;5095670;28;20208;-68
2020/12/06 10:24:53;;;;;;;27.63;20.38;;;;;;;;;;5095675;28;20196;-68
2020/12/06 10:27:20;;;;;;;29.15;20.60;;;;;;;;;;5095560;28;20695;-70
2020/12/06 10:29:47;;;;;;;31.75;21.65;;;;;;;;;;5106788;28;20220;-69
2020/12/06 10:32:13;;;;;;;30.98;21.70;;;;;;;;;;5104868;28;20196;-68
2020/12/06 10:34:40;;;;;;;29.50;20.38;;;;;;;;;;5106135;28;20204;-67
2020/12/06 10:37:07;;;;;;;30.05;21.08;;;;;;;;;;5103214;28;20222;-68
2020/12/06 10:39:34;;;;;;;33.78;22.25;;;;;;;;;;5102608;28;20634;-69
2020/12/06 10:42:01;;;;;;;37.35;22.67;;;;;;;;;;5100998;28;20196;-68
2020/12/06 10:44:28;;;;;;;33.45;22.73;;;;;;;;;;5095071;28;20256;-68
2020/12/06 10:46:55;;;;;;;30.90;20.67;;;;;;;;;;5095049;28;20212;-69
2020/12/06 10:49:22;;;;;;;30.52;22.13;;;;;;;;;;5094545;28;20220;-68
2020/12/06 10:51:48;;;;;;;27.90;21.77;;;;;;;;;;5094733;28;20208;-69
2020/12/06 10:54:17;;;;;;;31.90;22.67;;;;;;;;;;5096223;28;20270;-69
2020/12/06 10:56:44;;;;;;;37.10;24.67;;;;;;;;;;5095626;28;20253;-68
2020/12/06 10:59:12;;;;;;;29.65;21.80;;;;;;;;;;5096174;28;20709;-69
2020/12/06 11:01:38;;;;;;;34.08;25.17;;;;;;;;;;5095257;28;20208;-68
2020/12/06 11:04:06;;;;;;;31.13;20.85;;;;;;;;;;5095035;28;20226;-68
2020/12/06 11:06:33;;;;;;;36.95;24.38;;;;;;;;;;5094368;28;20315;-68
2020/12/06 11:09:00;;;;;;;32.38;22.80;;;;;;;;;;5094333;28;20208;-68
2020/12/06 11:11:27;;;;;;;30.48;21.60;;;;;;;;;;5094647;28;20208;-67
2020/12/06 11:13:54;;;;;;;32.13;23.63;;;;;;;;;;5094540;28;20208;-68
2020/12/06 11:16:22;;;;;;;30.63;23.83;;;;;;;;;;5093692;28;20200;-69
2020/12/06 11:18:49;;;;;;;32.17;23.25;;;;;;;;;;5094009;28;20745;-68
2020/12/06 11:21:16;;;;;;;34.00;22.27;;;;;;;;;;5094559;28;20238;-67
2020/12/06 11:23:43;;;;;;;35.88;23.92;;;;;;;;;;5094636;28;20200;-68
2020/12/06 11:26:10;;;;;;;30.10;21.85;;;;;;;;;;5094281;28;20325;-68
2020/12/06 11:28:37;;;;;;;30.63;22.10;;;;;;;;;;5094672;28;20204;-68
2020/12/06 11:31:03;;;;;;;34.03;24.50;;;;;;;;;;5102750;28;20220;-68
2020/12/06 11:33:31;;;;;;;32.75;22.65;;;;;;;;;;5107551;28;20196;-68
2020/12/06 11:35:58;;;;;;;34.50;24.20;;;;;;;;;;5112545;28;20200;-69
2020/12/06 11:38:24;;;;;;;34.53;23.13;;;;;;;;;;5109396;28;20211;-68
2020/12/06 11:40:51;;;;;;;31.88;22.88;;;;;;;;;;5106851;28;20227;-68
2020/12/06 11:43:18;;;;;;;35.78;23.85;;;;;;;;;;5096578;28;20245;-67
2020/12/06 11:45:45;;;;;;;35.78;23.77;;;;;;;;;;5095386;28;20263;-69
2020/12/06 11:48:11;;;;;;;34.10;23.85;;;;;;;;;;5095620;28;20273;-68
2020/12/06 11:50:39;;;;;;;33.35;23.05;;;;;;;;;;5097756;28;20228;-68
2020/12/06 11:53:06;;;;;;;36.03;23.50;;;;;;;;;;5094449;28;20199;-66
2020/12/06 11:55:32;;;;;;;34.35;24.30;;;;;;;;;;5094344;28;20204;-68
2020/12/06 11:57:59;;;;;;;33.47;23.75;;;;;;;;;;5093976;28;20246;-68
2020/12/06 12:00:26;;;;;;;35.00;25.15;;;;;;;;;;5093748;28;20216;-68
2020/12/06 12:02:53;;;;;;;35.47;24.92;;;;;;;;;;5093340;28;20254;-68
2020/12/06 12:05:19;;;;;;;37.50;26.27;;;;;;;;;;5093495;28;20208;-66
2020/12/06 12:07:47;;;;;;;40.63;26.15;;;;;;;;;;5093312;28;20205;-69
2020/12/06 12:10:15;;;;;;;36.05;26.42;;;;;;;;;;5093536;28;20274;-69
2020/12/06 12:12:42;;;;;;;33.63;23.38;;;;;;;;;;5093579;28;20204;-67
2020/12/06 12:15:09;;;;;;;36.95;25.65;;;;;;;;;;5093574;28;20694;-67
2020/12/06 12:17:36;;;;;;;34.72;24.08;;;;;;;;;;5094137;28;20193;-68
2020/12/06 12:20:03;;;;;;;33.92;25.27;;;;;;;;;;5093840;28;20281;-68
2020/12/06 12:22:30;;;;;;;34.25;24.75;;;;;;;;;;5093892;28;20250;-68
2020/12/06 12:24:58;;;;;;;38.35;27.17;;;;;;;;;;5094459;28;20210;-67
2020/12/06 12:27:25;;;;;;;38.10;27.35;;;;;;;;;;5094436;28;20223;-67
2020/12/06 12:29:51;;;;;;;37.00;26.15;;;;;;;;;;5097829;28;20220;-68
2020/12/06 12:32:18;;;;;;;34.42;23.70;;;;;;;;;;5097799;28;20204;-68
2020/12/06 12:34:45;;;;;;;36.20;24.60;;;;;;;;;;5097896;28;20207;-68
2020/12/06 12:37:15;;;;;;;37.50;26.00;;;;;;;;;;5097593;28;20200;-67
2020/12/06 12:39:41;;;;;;;36.13;25.55;;;;;;;;;;5097103;28;20224;-68
2020/12/06 12:42:09;;;;;;;44.03;27.58;;;;;;;;;;5097552;28;20209;-68
2020/12/06 12:44:36;;;;;;;37.08;26.73;;;;;;;;;;5097631;28;20196;-67
2020/12/06 12:47:03;;;;;;;39.60;25.42;;;;;;;;;;5097065;28;20231;-69
2020/12/06 12:49:30;;;;;;;43.75;26.88;;;;;;;;;;5096922;28;20220;-68
2020/12/06 12:51:57;;;;;;;36.65;25.90;;;;;;;;;;5097209;28;20668;-68
2020/12/06 12:54:24;;;;;;;36.20;26.65;;;;;;;;;;5097123;28;20283;-68
2020/12/06 12:56:50;;;;;;;36.08;25.10;;;;;;;;;;5097226;28;20196;-68
2020/12/06 12:59:18;;;;;;;33.40;25.45;;;;;;;;;;5096714;28;20711;-69
2020/12/06 13:01:49;;;;;;;43.05;28.05;;;;;;;;;;5096703;28;20208;-68
2020/12/06 13:04:16;;;;;;;39.47;29.88;;;;;;;;;;5096684;28;20203;-68
2020/12/06 13:06:43;;;;;;;41.85;29.30;;;;;;;;;;5096483;28;20760;-68
2020/12/06 13:09:12;;;;;;;37.67;27.45;;;;;;;;;;5097734;28;20277;-67
2020/12/06 13:11:39;;;;;;;38.88;27.33;;;;;;;;;;5096601;28;20204;-67
2020/12/06 13:14:06;;;;;;;37.92;27.02;;;;;;;;;;5096432;28;20208;-67
2020/12/06 13:16:37;;;;;;;43.88;26.90;;;;;;;;;;5096924;28;20199;-68
2020/12/06 13:19:04;;;;;;;44.40;26.10;;;;;;;;;;5096844;28;20733;-67
2020/12/06 13:21:33;;;;;;;34.45;26.23;;;;;;;;;;5098146;28;20197;-68
2020/12/06 13:24:00;;;;;;;41.15;28.55;;;;;;;;;;5097198;28;20712;-67
2020/12/06 13:26:27;;;;;;;37.03;26.70;;;;;;;;;;5096713;28;20235;-66
2020/12/06 13:28:53;;;;;;;41.50;29.80;;;;;;;;;;5096591;28;20689;-67
2020/12/06 13:31:21;;;;;;;38.90;26.35;;;;;;;;;;5096215;28;20253;-66
2020/12/06 13:33:50;;;;;;;44.03;29.10;;;;;;;;;;5097175;28;20202;-67
2020/12/06 13:36:17;;;;;;;36.15;27.15;;;;;;;;;;5097656;28;20208;-67
2020/12/06 13:38:44;;;;;;;37.35;25.92;;;;;;;;;;5096592;28;20200;-68
2020/12/06 13:41:11;;;;;;;36.63;26.45;;;;;;;;;;5097151;28;20224;-68
2020/12/06 13:43:37;;;;;;;41.17;29.45;;;;;;;;;;5096543;28;20201;-67
2020/12/06 13:46:04;;;;;;;39.20;27.13;;;;;;;;;;5096362;28;20200;-68
2020/12/06 13:48:31;;;;;;;41.00;28.05;;;;;;;;;;5095877;28;20220;-67
2020/12/06 13:50:58;;;;;;;42.03;27.92;;;;;;;;;;5095882;28;20224;-68
2020/12/06 13:53:25;;;;;;;41.42;28.65;;;;;;;;;;5096220;28;20574;-68
2020/12/06 13:55:52;;;;;;;44.13;26.48;;;;;;;;;;5095835;28;20593;-68
2020/12/06 13:58:19;;;;;;;37.70;26.92;;;;;;;;;;5095617;28;20200;-67
2020/12/06 14:00:45;;;;;;;38.50;28.60;;;;;;;;;;5095981;28;20273;-68
2020/12/06 14:03:12;;;;;;;43.00;28.13;;;;;;;;;;5095831;28;20257;-67
2020/12/06 14:05:39;;;;;;;36.63;28.10;;;;;;;;;;5095500;28;20257;-68
2020/12/06 14:08:07;;;;;;;40.97;27.83;;;;;;;;;;5095793;28;20345;-67
2020/12/06 14:10:33;;;;;;;41.25;28.30;;;;;;;;;;5095598;28;20273;-66
2020/12/06 14:13:00;;;;;;;43.53;27.50;;;;;;;;;;5095585;28;20196;-68
2020/12/06 14:15:27;;;;;;;40.33;27.58;;;;;;;;;;5096228;28;20226;-67
2020/12/06 14:17:54;;;;;;;46.58;29.10;;;;;;;;;;5100059;28;20607;-68
2020/12/06 14:20:20;;;;;;;47.55;30.70;;;;;;;;;;5097963;28;20691;-68
2020/12/06 14:22:47;;;;;;;42.55;29.92;;;;;;;;;;5098001;28;20200;-66
2020/12/06 14:25:15;;;;;;;41.92;30.65;;;;;;;;;;5098509;28;20197;-66
2020/12/06 14:27:41;;;;;;;47.17;30.45;;;;;;;;;;5100364;28;20285;-68
2020/12/06 14:30:08;;;;;;;43.63;28.88;;;;;;;;;;5098775;28;20227;-67
2020/12/06 14:32:35;;;;;;;42.00;28.90;;;;;;;;;;5097615;28;20257;-69
2020/12/06 14:35:02;;;;;;;45.58;28.08;;;;;;;;;;5095780;28;20196;-67
2020/12/06 14:37:30;;;;;;;41.65;28.95;;;;;;;;;;5095716;28;20204;-67
2020/12/06 14:39:57;;;;;;;39.00;27.98;;;;;;;;;;5096102;28;20273;-68
2020/12/06 14:42:24;;;;;;;46.10;29.67;;;;;;;;;;5097217;28;20204;-67
2020/12/06 14:44:51;;;;;;;41.58;29.15;;;;;;;;;;5098751;28;20208;-67
2020/12/06 14:47:18;;;;;;;41.25;27.63;;;;;;;;;;5097333;28;20228;-67
2020/12/06 14:49:44;;;;;;;39.90;28.00;;;;;;;;;;5094937;28;20220;-66
2020/12/06 14:52:11;;;;;;;40.03;27.65;;;;;;;;;;5095672;28;20204;-67
2020/12/06 14:54:38;;;;;;;39.88;27.60;;;;;;;;;;5095270;28;20234;-67
2020/12/06 14:57:05;;;;;;;37.75;27.25;;;;;;;;;;5097659;28;20667;-66
2020/12/06 14:59:32;;;;;;;44.10;28.17;;;;;;;;;;5095656;28;20221;-65
2020/12/06 15:01:59;;;;;;;41.78;27.10;;;;;;;;;;5095553;28;20254;-66
2020/12/06 15:04:26;;;;;;;43.45;28.77;;;;;;;;;;5095385;28;20204;-65
2020/12/06 15:06:53;;;;;;;48.60;29.77;;;;;;;;;;5095074;28;20269;-65
2020/12/06 15:09:19;;;;;;;41.45;27.25;;;;;;;;;;5094686;28;20228;-67
2020/12/06 15:11:46;;;;;;;38.28;26.73;;;;;;;;;;5094661;28;20250;-66
2020/12/06 15:14:13;;;;;;;42.80;29.17;;;;;;;;;;5095485;28;20204;-65
2020/12/06 15:16:41;;;;;;;43.83;29.30;;;;;;;;;;5094429;28;20209;-66
2020/12/06 15:19:08;;;;;;;45.35;29.00;;;;;;;;;;5093870;28;20204;-64
2020/12/06 15:21:35;;;;;;;43.75;28.30;;;;;;;;;;5093940;28;20258;-65
2020/12/06 15:24:02;;;;;;;37.78;27.83;;;;;;;;;;5094335;28;20232;-66
2020/12/06 15:26:28;;;;;;;41.35;29.85;;;;;;;;;;5094544;28;20578;-66
2020/12/06 15:28:55;;;;;;;39.63;28.35;;;;;;;;;;5094567;28;20721;-65
2020/12/06 15:31:22;;;;;;;43.75;27.95;;;;;;;;;;5094077;28;20668;-65
2020/12/06 15:33:49;;;;;;;42.50;27.52;;;;;;;;;;5094651;28;20272;-66
2020/12/06 15:36:17;;;;;;;39.00;28.70;;;;;;;;;;5095829;28;20200;-65
2020/12/06 15:38:46;;;;;;;40.08;27.83;;;;;;;;;;5094780;28;20197;-66
2020/12/06 15:41:13;;;;;;;45.03;30.40;;;;;;;;;;5094559;28;20220;-66
2020/12/06 15:43:40;;;;;;;50.50;31.88;;;;;;;;;;5094621;28;20207;-66
2020/12/06 15:46:07;;;;;;;50.08;31.45;;;;;;;;;;5094304;28;20210;-66
2020/12/06 15:48:34;;;;;;;48.60;32.05;;;;;;;;;;5093887;28;20220;-65
2020/12/06 15:51:04;;;;;;;61.40;36.50;;;;;;;;;;5094024;28;20220;-67
2020/12/06 15:53:31;;;;;;;58.38;33.83;;;;;;;;;;5094442;28;20266;-66
2020/12/06 15:55:58;;;;;;;55.65;32.45;;;;;;;;;;5093996;28;20196;-66
2020/12/06 15:58:25;;;;;;;51.80;31.38;;;;;;;;;;5094171;28;20254;-64
2020/12/06 16:00:52;;;;;;;49.65;29.27;;;;;;;;;;5094220;28;20579;-66
2020/12/06 16:03:18;;;;;;;54.80;30.67;;;;;;;;;;5094117;28;20257;-66
2020/12/06 16:05:48;;;;;;;55.80;29.95;;;;;;;;;;5095059;28;20223;-67
2020/12/06 16:08:15;;;;;;;51.85;31.35;;;;;;;;;;5094754;28;20228;-66
2020/12/06 16:10:42;;;;;;;49.97;29.50;;;;;;;;;;5093761;28;20240;-66
2020/12/06 16:13:09;;;;;;;53.58;33.80;;;;;;;;;;5093768;28;20617;-66
2020/12/06 16:15:36;;;;;;;54.97;31.08;;;;;;;;;;5094066;28;20201;-66
2020/12/06 16:18:02;;;;;;;49.65;31.48;;;;;;;;;;5094205;28;20229;-65
2020/12/06 16:20:29;;;;;;;49.50;31.52;;;;;;;;;;5101437;28;20250;-68
2020/12/06 16:22:56;;;;;;;52.55;32.83;;;;;;;;;;5104926;28;20204;-68
2020/12/06 16:25:23;;;;;;;52.60;32.83;;;;;;;;;;5104238;28;20226;-67
2020/12/06 16:27:50;;;;;;;54.45;32.28;;;;;;;;;;5100038;28;20269;-66
2020/12/06 16:30:17;;;;;;;53.35;32.90;;;;;;;;;;5097064;28;20224;-65
2020/12/06 16:32:44;;;;;;;50.85;31.58;;;;;;;;;;5100208;28;20616;-66